createdAt,value
2022-11-20T00:01:35.019Z,5.74
2022-11-20T00:04:02.432Z,5.61
2022-11-20T00:06:29.782Z,5.58
2022-11-20T00:08:58.308Z,5.66
2022-11-20T00:11:26.797Z,5.62
2022-11-20T00:13:56.168Z,5.52
2022-11-20T00:16:24.755Z,5.56
2022-11-20T00:18:52.476Z,5.59
2022-11-20T00:21:24.955Z,5.60
2022-11-20T00:23:56.099Z,5.62
2022-11-20T00:26:24.115Z,5.54
2022-11-20T00:28:55.816Z,5.50
2022-11-20T00:31:23.038Z,5.46
2022-11-20T00:33:49.964Z,5.54
2022-11-20T00:36:21.646Z,5.63
2022-11-20T00:38:52.018Z,5.64
2022-11-20T00:41:20.919Z,5.65
2022-11-20T00:43:47.554Z,5.64
2022-11-20T00:46:19.703Z,5.63
2022-11-20T00:48:48.925Z,5.61
2022-11-20T00:51:20.651Z,5.65
2022-11-20T00:53:47.827Z,5.68
2022-11-20T00:56:17.007Z,5.73
2022-11-20T00:58:48.621Z,5.77
2022-11-20T01:01:17.394Z,5.84
2022-11-20T01:03:47.325Z,6.12
2022-11-20T01:06:27.589Z,6.43
2022-11-20T01:08:58.268Z,6.48
2022-11-20T01:11:29.851Z,6.66
2022-11-20T01:13:58.139Z,6.74
2022-11-20T01:16:33.514Z,6.94
2022-11-20T01:19:03.391Z,6.82
2022-11-20T01:21:33.687Z,6.88
2022-11-20T01:24:06.201Z,6.93
2022-11-20T01:26:35.590Z,7.01
2022-11-20T01:29:03.176Z,6.99
2022-11-20T01:31:32.943Z,6.97
2022-11-20T01:34:03.373Z,6.94
2022-11-20T01:36:31.790Z,6.84
2022-11-20T01:39:01.676Z,6.83
2022-11-20T01:41:50.064Z,6.97
2022-11-20T01:44:20.294Z,6.86
2022-11-20T01:47:01.931Z,6.85
2022-11-20T01:49:38.421Z,6.89
2022-11-20T01:52:13.353Z,6.94
2022-11-20T01:54:47.131Z,6.82
2022-11-20T01:57:14.868Z,6.90
2022-11-20T01:59:47.438Z,6.84
2022-11-20T02:02:14.212Z,6.79
2022-11-20T02:04:43.209Z,6.66
2022-11-20T02:07:10.292Z,6.70
2022-11-20T02:09:36.843Z,6.79
2022-11-20T02:12:04.634Z,6.87
2022-11-20T02:14:33.624Z,6.92
2022-11-20T02:17:00.418Z,6.94
2022-11-20T02:19:32.718Z,6.92
2022-11-20T02:22:20.489Z,6.83
2022-11-20T02:24:49.975Z,6.81
2022-11-20T02:27:18.014Z,6.84
2022-11-20T02:29:59.055Z,6.77
2022-11-20T02:32:28.970Z,6.81
2022-11-20T02:34:58.411Z,6.75
2022-11-20T02:37:31.582Z,6.78
2022-11-20T02:39:58.594Z,6.79
2022-11-20T02:42:25.310Z,6.86
2022-11-20T02:44:51.886Z,6.76
2022-11-20T02:47:18.438Z,6.65
2022-11-20T02:49:44.986Z,6.60
2022-11-20T02:52:11.510Z,6.58
2022-11-20T02:54:38.085Z,6.56
2022-11-20T02:57:04.664Z,6.78
2022-11-20T02:59:31.481Z,6.66
2022-11-20T03:01:58.020Z,6.70
2022-11-20T03:04:24.584Z,6.67
2022-11-20T03:06:51.136Z,6.70
2022-11-20T03:09:17.791Z,6.72
2022-11-20T03:11:44.675Z,6.71
2022-11-20T03:14:11.315Z,6.61
2022-11-20T03:16:37.909Z,6.81
2022-11-20T03:19:06.778Z,6.70
2022-11-20T03:21:39.006Z,6.69
2022-11-20T03:24:08.274Z,6.74
2022-11-20T03:26:34.842Z,6.77
2022-11-20T03:29:04.502Z,6.79
2022-11-20T03:31:41.428Z,6.72
2022-11-20T03:34:09.795Z,6.69
2022-11-20T03:36:39.368Z,6.78
2022-11-20T03:39:06.388Z,6.82
2022-11-20T03:41:37.777Z,6.69
2022-11-20T03:44:06.824Z,6.74
2022-11-20T03:46:33.961Z,6.75
2022-11-20T03:49:00.861Z,6.73
2022-11-20T03:51:34.167Z,6.67
2022-11-20T03:54:05.577Z,6.75
2022-11-20T03:56:34.661Z,6.56
2022-11-20T03:59:01.603Z,6.63
2022-11-20T04:01:33.647Z,6.77
2022-11-20T04:04:00.560Z,6.65
2022-11-20T04:06:30.417Z,6.73
2022-11-20T04:08:58.628Z,6.70
2022-11-20T04:11:36.539Z,6.69
2022-11-20T04:14:05.880Z,6.82
2022-11-20T04:16:36.982Z,6.91
2022-11-20T04:19:05.736Z,6.76
2022-11-20T04:21:32.290Z,6.78
2022-11-20T04:23:59.400Z,6.83
2022-11-20T04:26:28.149Z,6.79
2022-11-20T04:28:55.029Z,6.71
2022-11-20T04:31:24.059Z,6.73
2022-11-20T04:33:51.066Z,6.85
2022-11-20T04:36:20.649Z,6.88
2022-11-20T04:38:50.322Z,6.89
2022-11-20T04:41:20.804Z,6.83
2022-11-20T04:43:52.154Z,6.79
2022-11-20T04:46:21.715Z,6.78
2022-11-20T04:48:48.660Z,6.74
2022-11-20T04:51:15.822Z,6.85
2022-11-20T04:53:42.885Z,6.84
2022-11-20T04:56:14.767Z,6.92
2022-11-20T04:58:41.480Z,6.92
2022-11-20T05:01:13.302Z,6.83
2022-11-20T05:03:43.451Z,6.82
2022-11-20T05:06:12.623Z,6.85
2022-11-20T05:08:39.268Z,6.91
2022-11-20T05:11:14.119Z,6.97
2022-11-20T05:13:41.650Z,6.88
2022-11-20T05:16:11.315Z,6.92
2022-11-20T05:18:41.359Z,6.90
2022-11-20T05:21:11.470Z,6.97
2022-11-20T05:23:38.600Z,6.93
2022-11-20T05:26:09.102Z,7.01
2022-11-20T05:28:37.888Z,6.94
2022-11-20T05:31:10.005Z,6.85
2022-11-20T05:33:37.052Z,6.90
2022-11-20T05:36:05.036Z,6.97
2022-11-20T05:38:31.925Z,6.95
2022-11-20T05:41:13.814Z,6.86
2022-11-20T05:43:42.355Z,6.88
2022-11-20T05:46:11.363Z,6.84
2022-11-20T05:48:39.344Z,6.74
2022-11-20T05:51:07.997Z,6.74
2022-11-20T05:53:36.114Z,6.78
2022-11-20T05:56:08.383Z,6.68
2022-11-20T05:58:35.126Z,6.61
2022-11-20T06:01:12.346Z,6.75
2022-11-20T06:03:43.316Z,6.84
2022-11-20T06:06:10.377Z,7.03
2022-11-20T06:08:36.902Z,6.95
2022-11-20T06:11:07.863Z,6.74
2022-11-20T06:13:39.193Z,6.80
2022-11-20T06:16:08.821Z,6.92
2022-11-20T06:18:35.372Z,7.03
2022-11-20T06:21:02.604Z,6.74
2022-11-20T06:23:34.942Z,6.78
2022-11-20T06:26:06.385Z,6.77
2022-11-20T06:28:35.767Z,6.70
2022-11-20T06:31:02.870Z,6.80
2022-11-20T06:33:29.914Z,6.75
2022-11-20T06:36:07.216Z,6.92
2022-11-20T06:38:37.166Z,7.02
2022-11-20T06:41:07.970Z,6.89
2022-11-20T06:43:34.502Z,6.93
2022-11-20T06:46:01.051Z,7.03
2022-11-20T06:48:31.628Z,6.98
2022-11-20T06:50:58.474Z,7.04
2022-11-20T06:53:25.733Z,6.96
2022-11-20T06:55:53.041Z,6.94
2022-11-20T06:58:19.966Z,6.89
2022-11-20T07:00:46.575Z,6.91
2022-11-20T07:03:13.847Z,6.88
2022-11-20T07:05:41.014Z,7.08
2022-11-20T07:08:07.878Z,7.12
2022-11-20T07:10:34.466Z,7.07
2022-11-20T07:13:01.021Z,6.94
2022-11-20T07:15:27.786Z,6.97
2022-11-20T07:17:59.140Z,6.90
2022-11-20T07:20:28.051Z,7.13
2022-11-20T07:22:56.745Z,7.18
2022-11-20T07:25:24.425Z,7.12
2022-11-20T07:27:50.995Z,7.14
2022-11-20T07:30:18.050Z,7.12
2022-11-20T07:32:48.629Z,7.04
2022-11-20T07:35:15.329Z,7.12
2022-11-20T07:37:41.921Z,7.11
2022-11-20T07:40:08.843Z,7.09
2022-11-20T07:42:35.384Z,7.11
2022-11-20T07:45:01.951Z,7.17
2022-11-20T07:47:28.658Z,7.18
2022-11-20T07:49:55.194Z,7.33
2022-11-20T07:52:23.962Z,7.25
2022-11-20T07:54:50.468Z,7.24
2022-11-20T07:57:17.081Z,7.25
2022-11-20T07:59:43.617Z,7.49
2022-11-20T08:02:12.194Z,7.51
2022-11-20T08:04:41.267Z,7.40
2022-11-20T08:07:07.805Z,7.52
2022-11-20T08:09:36.908Z,7.48
2022-11-20T08:12:22.105Z,7.44
2022-11-20T08:14:48.633Z,7.41
2022-11-20T08:17:15.189Z,7.48
2022-11-20T08:19:41.756Z,7.58
2022-11-20T08:22:08.403Z,7.44
2022-11-20T08:24:39.697Z,7.46
2022-11-20T08:27:06.250Z,7.44
2022-11-20T08:29:32.872Z,7.50
2022-11-20T08:31:59.502Z,7.48
2022-11-20T08:34:26.081Z,7.51
2022-11-20T08:36:52.624Z,7.37
2022-11-20T08:39:19.377Z,7.36
2022-11-20T08:41:46.175Z,7.48
2022-11-20T08:44:12.758Z,7.69
2022-11-20T08:46:41.948Z,7.84
2022-11-20T08:49:10.697Z,7.97
2022-11-20T08:51:38.076Z,8.05
2022-11-20T08:54:08.465Z,8.03
2022-11-20T08:56:36.644Z,8.31
2022-11-20T08:59:27.074Z,8.42
2022-11-20T09:01:50.096Z,8.81
2022-11-20T09:04:16.760Z,9.08
2022-11-20T09:06:43.357Z,9.24
2022-11-20T09:09:09.918Z,9.49
2022-11-20T09:11:37.137Z,9.43
2022-11-20T09:14:05.479Z,9.60
2022-11-20T09:16:32.133Z,9.87
2022-11-20T09:19:28.112Z,9.89
2022-11-20T09:21:45.438Z,9.82
2022-11-20T09:24:12.104Z,9.76
2022-11-20T09:26:38.737Z,9.55
2022-11-20T09:29:05.345Z,9.50
2022-11-20T09:31:31.895Z,9.27
2022-11-20T09:33:58.451Z,9.17
2022-11-20T09:36:25.044Z,9.05
2022-11-20T09:38:51.727Z,8.96
2022-11-20T09:41:56.312Z,8.88
2022-11-20T09:44:34.979Z,8.93
2022-11-20T09:47:09.596Z,8.91
2022-11-20T09:49:54.595Z,8.91
2022-11-20T09:52:42.964Z,8.83
2022-11-20T09:55:13.529Z,8.90
2022-11-20T09:57:44.413Z,8.87
2022-11-20T10:00:13.494Z,8.82
2022-11-20T10:02:54.036Z,8.80
2022-11-20T10:05:26.957Z,8.84
2022-11-20T10:08:11.718Z,8.87
2022-11-20T10:10:50.774Z,8.83
2022-11-20T10:13:40.975Z,8.81
2022-11-20T10:16:10.549Z,8.80
2022-11-20T10:19:07.363Z,8.98
2022-11-20T10:21:39.875Z,8.83
2022-11-20T10:24:15.500Z,8.83
2022-11-20T10:26:58.918Z,8.92
2022-11-20T10:29:36.337Z,8.90
2022-11-20T10:32:15.661Z,8.97
2022-11-20T10:34:54.008Z,9.00
2022-11-20T10:37:26.229Z,8.87
2022-11-20T10:40:02.680Z,8.94
2022-11-20T10:42:52.275Z,8.89
2022-11-20T10:45:30.632Z,9.09
2022-11-20T10:48:06.311Z,9.13
2022-11-20T10:50:33.332Z,9.15
2022-11-20T10:53:24.157Z,9.24
2022-11-20T10:56:35.718Z,9.28
2022-11-20T10:59:40.519Z,9.34
2022-11-20T11:02:24.409Z,9.36
2022-11-20T11:04:54.849Z,9.44
2022-11-20T11:07:26.374Z,9.52
2022-11-20T11:09:57.884Z,9.66
2022-11-20T11:12:29.921Z,9.73
2022-11-20T11:14:58.607Z,9.69
2022-11-20T11:17:28.274Z,9.61
2022-11-20T11:20:03.364Z,9.65
2022-11-20T11:22:32.658Z,9.57
2022-11-20T11:25:00.238Z,9.53
2022-11-20T11:27:26.890Z,9.49
2022-11-20T11:30:14.470Z,9.48
2022-11-20T11:32:41.178Z,9.34
2022-11-20T11:35:23.397Z,9.29
2022-11-20T11:37:52.023Z,9.28
2022-11-20T11:40:24.594Z,9.40
2022-11-20T11:43:27.314Z,9.26
2022-11-20T11:45:56.318Z,9.18
2022-11-20T11:48:25.627Z,9.15
2022-11-20T11:50:53.052Z,9.24
2022-11-20T11:53:22.273Z,9.17
2022-11-20T11:56:10.954Z,9.12
2022-11-20T11:58:56.402Z,9.21
2022-11-20T12:01:32.500Z,9.36
2022-11-20T12:04:34.666Z,9.40
2022-11-20T12:07:46.738Z,9.38
2022-11-20T12:10:19.989Z,9.41
2022-11-20T12:12:52.026Z,9.45
2022-11-20T12:15:32.361Z,9.43
2022-11-20T12:18:01.900Z,9.71
2022-11-20T12:20:36.278Z,9.69
2022-11-20T12:23:14.896Z,9.77
2022-11-20T12:25:45.399Z,9.85
2022-11-20T12:28:37.951Z,9.87
2022-11-20T12:31:25.790Z,9.85
2022-11-20T12:34:00.885Z,9.72
2022-11-20T12:37:04.687Z,9.71
2022-11-20T12:39:51.937Z,9.47
2022-11-20T12:42:49.480Z,9.65
2022-11-20T12:45:28.080Z,9.67
2022-11-20T12:48:15.855Z,9.73
2022-11-20T12:51:15.470Z,9.69
2022-11-20T12:54:26.102Z,9.70
2022-11-20T12:57:04.064Z,9.68
2022-11-20T13:00:11.830Z,9.64
2022-11-20T13:03:14.519Z,9.74
2022-11-20T13:06:13.510Z,9.68
2022-11-20T13:08:43.276Z,9.67
2022-11-20T13:11:25.102Z,9.63
2022-11-20T13:14:12.411Z,9.70
2022-11-20T13:16:54.927Z,9.73
2022-11-20T13:19:22.538Z,9.74
2022-11-20T13:21:51.571Z,9.81
2022-11-20T13:24:27.766Z,9.92
2022-11-20T13:27:13.633Z,9.83
2022-11-20T13:29:45.749Z,9.80
2022-11-20T13:32:21.993Z,9.84
2022-11-20T13:35:03.998Z,9.85
2022-11-20T13:37:34.742Z,9.98
2022-11-20T13:40:10.500Z,9.96
2022-11-20T13:42:53.016Z,9.97
2022-11-20T13:45:37.817Z,9.78
2022-11-20T13:48:22.692Z,9.73
2022-11-20T13:51:13.821Z,9.67
2022-11-20T13:54:01.166Z,9.69
2022-11-20T13:57:04.680Z,9.43
2022-11-20T13:59:55.619Z,9.01
2022-11-20T14:02:24.358Z,8.77
2022-11-20T14:04:54.775Z,8.68
2022-11-20T14:07:24.870Z,8.61
2022-11-20T14:09:57.148Z,8.40
2022-11-20T14:12:29.983Z,8.38
2022-11-20T14:14:57.582Z,8.51
2022-11-20T14:17:27.737Z,8.35
2022-11-20T14:20:00.087Z,8.31
2022-11-20T14:22:29.857Z,8.33
2022-11-20T14:25:19.655Z,8.34
2022-11-20T14:27:54.790Z,8.26
2022-11-20T14:30:24.813Z,8.38
2022-11-20T14:32:55.436Z,8.36
2022-11-20T14:35:28.202Z,8.30
2022-11-20T14:37:56.359Z,8.36
2022-11-20T14:40:29.793Z,8.45
2022-11-20T14:42:58.235Z,8.46
2022-11-20T14:45:28.581Z,8.53
2022-11-20T14:47:58.857Z,8.33
2022-11-20T14:50:27.428Z,8.34
2022-11-20T14:52:56.442Z,8.40
2022-11-20T14:55:38.320Z,8.37
2022-11-20T14:58:07.623Z,8.29
2022-11-20T15:00:35.683Z,8.22
2022-11-20T15:03:02.327Z,8.23
2022-11-20T15:05:51.331Z,8.28
2022-11-20T15:08:20.604Z,8.22
2022-11-20T15:10:50.234Z,8.21
2022-11-20T15:13:27.361Z,8.16
2022-11-20T15:15:56.401Z,8.17
2022-11-20T15:18:29.511Z,8.11
2022-11-20T15:20:58.662Z,8.14
2022-11-20T15:23:27.733Z,8.20
2022-11-20T15:25:54.936Z,8.03
2022-11-20T15:28:27.674Z,8.12
2022-11-20T15:30:54.866Z,8.17
2022-11-20T15:33:21.525Z,8.05
2022-11-20T15:35:48.093Z,8.09
2022-11-20T15:38:14.741Z,8.05
2022-11-20T15:40:41.272Z,8.06
2022-11-20T15:43:13.640Z,8.14
2022-11-20T15:45:54.088Z,8.02
2022-11-20T15:48:32.879Z,7.95
2022-11-20T15:51:11.976Z,7.93
2022-11-20T15:53:41.506Z,7.98
2022-11-20T15:56:15.250Z,8.00
2022-11-20T15:58:42.082Z,7.99
2022-11-20T16:01:17.958Z,7.88
2022-11-20T16:03:45.009Z,7.77
2022-11-20T16:06:13.835Z,8.10
2022-11-20T16:08:40.586Z,8.05
2022-11-20T16:11:07.403Z,7.98
2022-11-20T16:13:52.711Z,7.91
2022-11-20T16:16:23.396Z,7.88
2022-11-20T16:18:53.196Z,7.84
2022-11-20T16:21:22.024Z,7.93
2022-11-20T16:23:49.850Z,7.95
2022-11-20T16:26:23.402Z,7.95
2022-11-20T16:28:52.138Z,7.82
2022-11-20T16:31:20.186Z,7.87
2022-11-20T16:33:54.175Z,7.78
2022-11-20T16:36:23.096Z,7.70
2022-11-20T16:38:58.024Z,7.68
2022-11-20T16:41:33.264Z,7.70
2022-11-20T16:44:02.298Z,7.63
2022-11-20T16:46:32.771Z,7.71
2022-11-20T16:49:01.859Z,7.77
2022-11-20T16:51:33.388Z,7.81
2022-11-20T16:54:03.489Z,7.71
2022-11-20T16:56:30.311Z,7.58
2022-11-20T16:58:59.006Z,7.60
2022-11-20T17:01:31.438Z,7.56
2022-11-20T17:04:06.245Z,7.53
2022-11-20T17:06:37.556Z,7.51
2022-11-20T17:09:04.962Z,7.52
2022-11-20T17:11:33.486Z,7.43
2022-11-20T17:14:04.060Z,7.33
2022-11-20T17:16:31.493Z,7.33
2022-11-20T17:19:02.864Z,7.42
2022-11-20T17:21:31.091Z,7.23
2022-11-20T17:24:02.854Z,7.26
2022-11-20T17:26:30.577Z,7.28
2022-11-20T17:29:07.745Z,7.16
2022-11-20T17:31:35.328Z,7.11
2022-11-20T17:34:02.771Z,7.28
2022-11-20T17:36:30.566Z,7.34
2022-11-20T17:38:57.854Z,7.31
2022-11-20T17:41:27.208Z,7.21
2022-11-20T17:43:55.807Z,7.29
2022-11-20T17:46:26.936Z,7.44
2022-11-20T17:48:53.971Z,7.34
2022-11-20T17:51:23.942Z,7.29
2022-11-20T17:53:53.465Z,7.38
2022-11-20T17:56:38.998Z,7.43
2022-11-20T17:59:11.522Z,7.22
2022-11-20T18:01:39.726Z,6.97
2022-11-20T18:04:06.587Z,6.94
2022-11-20T18:06:33.195Z,6.99
2022-11-20T18:09:03.701Z,7.06
2022-11-20T18:11:34.932Z,6.87
2022-11-20T18:14:24.772Z,6.66
2022-11-20T18:17:17.928Z,6.47
2022-11-20T18:20:07.203Z,6.43
2022-11-20T18:22:34.133Z,6.38
2022-11-20T18:25:00.718Z,6.21
2022-11-20T18:27:27.379Z,6.40
2022-11-20T18:29:56.591Z,6.26
2022-11-20T18:32:23.112Z,6.10
2022-11-20T18:34:50.595Z,6.10
2022-11-20T18:37:17.458Z,6.00
2022-11-20T18:39:44.179Z,5.87
2022-11-20T18:42:33.874Z,5.82
2022-11-20T18:45:01.515Z,5.93
2022-11-20T18:47:34.103Z,5.75
2022-11-20T18:50:05.434Z,5.64
2022-11-20T18:52:44.698Z,5.70
2022-11-20T18:55:11.952Z,5.72
2022-11-20T18:57:38.573Z,5.84
2022-11-20T19:00:09.438Z,5.64
2022-11-20T19:02:41.630Z,5.65
2022-11-20T19:05:14.014Z,5.57
2022-11-20T19:07:41.105Z,5.54
2022-11-20T19:10:08.099Z,5.43
2022-11-20T19:12:35.193Z,5.38
2022-11-20T19:15:01.744Z,5.38
2022-11-20T19:17:28.368Z,5.54
2022-11-20T19:19:55.208Z,5.48
2022-11-20T19:22:24.395Z,5.41
2022-11-20T19:24:50.924Z,5.44
2022-11-20T19:27:17.418Z,5.43
2022-11-20T19:29:44.055Z,5.38
2022-11-20T19:32:10.605Z,5.45
2022-11-20T19:34:37.374Z,5.44
2022-11-20T19:37:03.858Z,5.47
2022-11-20T19:39:30.571Z,5.42
2022-11-20T19:41:57.217Z,5.45
2022-11-20T19:44:23.801Z,5.27
2022-11-20T19:46:50.969Z,5.26
2022-11-20T19:49:19.966Z,5.21
2022-11-20T19:51:48.510Z,5.03
2022-11-20T19:54:15.607Z,4.86
2022-11-20T19:56:42.185Z,4.68
2022-11-20T19:59:09.126Z,4.61
2022-11-20T20:01:35.670Z,4.66
2022-11-20T20:04:03.582Z,4.77
2022-11-20T20:06:31.303Z,4.69
2022-11-20T20:09:00.891Z,4.40
2022-11-20T20:11:30.095Z,4.42
2022-11-20T20:14:00.762Z,4.41
2022-11-20T20:16:30.051Z,4.55
2022-11-20T20:19:01.806Z,4.40
2022-11-20T20:21:30.413Z,4.44
2022-11-20T20:24:00.145Z,4.18
2022-11-20T20:26:29.062Z,4.10
2022-11-20T20:28:56.252Z,4.16
2022-11-20T20:31:25.621Z,3.82
2022-11-20T20:33:55.304Z,3.69
2022-11-20T20:36:26.637Z,3.82
2022-11-20T20:38:56.938Z,3.97
2022-11-20T20:41:26.728Z,3.82
2022-11-20T20:44:11.876Z,3.73
2022-11-20T20:46:38.831Z,3.36
2022-11-20T20:49:08.496Z,3.50
2022-11-20T20:51:35.268Z,3.48
2022-11-20T20:54:01.988Z,3.64
2022-11-20T20:56:28.534Z,3.57
2022-11-20T20:58:55.006Z,3.51
2022-11-20T21:01:22.983Z,3.53
2022-11-20T21:03:49.592Z,3.52
2022-11-20T21:06:16.083Z,3.39
2022-11-20T21:08:44.479Z,3.15
2022-11-20T21:11:14.141Z,3.20
2022-11-20T21:13:48.110Z,3.27
2022-11-20T21:16:21.013Z,3.16
2022-11-20T21:18:47.542Z,3.23
2022-11-20T21:21:34.134Z,3.21
2022-11-20T21:24:01.154Z,3.05
2022-11-20T21:26:27.795Z,3.13
2022-11-20T21:28:54.443Z,3.08
2022-11-20T21:31:23.498Z,2.95
2022-11-20T21:33:52.282Z,3.05
2022-11-20T21:36:21.167Z,3.26
2022-11-20T21:38:48.272Z,3.22
2022-11-20T21:41:15.805Z,3.11
2022-11-20T21:43:42.982Z,3.19
2022-11-20T21:46:17.246Z,3.26
2022-11-20T21:48:45.882Z,3.15
2022-11-20T21:51:20.587Z,3.13
2022-11-20T21:53:48.602Z,3.20
2022-11-20T21:56:20.360Z,3.24
2022-11-20T21:58:47.720Z,3.13
2022-11-20T22:01:17.277Z,3.24
2022-11-20T22:03:48.308Z,3.38
2022-11-20T22:06:15.214Z,3.24
2022-11-20T22:08:41.761Z,3.27
2022-11-20T22:11:10.781Z,3.09
2022-11-20T22:13:57.622Z,3.22
2022-11-20T22:16:24.341Z,3.29
2022-11-20T22:18:53.196Z,3.37
2022-11-20T22:21:24.963Z,3.41
2022-11-20T22:23:51.696Z,3.39
2022-11-20T22:26:22.894Z,3.45
2022-11-20T22:28:51.421Z,3.58
2022-11-20T22:31:21.273Z,3.55
2022-11-20T22:33:47.802Z,3.58
2022-11-20T22:36:22.518Z,3.62
2022-11-20T22:38:49.573Z,3.67
2022-11-20T22:41:21.439Z,3.59
2022-11-20T22:43:48.002Z,3.66
2022-11-20T22:46:19.064Z,3.69
2022-11-20T22:48:55.895Z,3.62
2022-11-20T22:51:24.542Z,3.81
2022-11-20T22:53:51.573Z,3.91
2022-11-20T22:56:18.730Z,4.00
2022-11-20T22:58:47.139Z,4.10
2022-11-20T23:01:21.005Z,4.53
2022-11-20T23:03:55.140Z,5.15
2022-11-20T23:06:24.705Z,5.58
2022-11-20T23:08:54.112Z,5.74
2022-11-20T23:11:25.752Z,6.02
2022-11-20T23:13:59.137Z,6.12
2022-11-20T23:16:28.655Z,6.07
2022-11-20T23:18:56.786Z,6.22
2022-11-20T23:21:23.585Z,6.12
2022-11-20T23:23:55.252Z,6.15
2022-11-20T23:26:27.627Z,6.27
2022-11-20T23:28:56.352Z,6.16
2022-11-20T23:31:23.213Z,6.25
2022-11-20T23:33:49.676Z,6.20
2022-11-20T23:36:18.727Z,6.17
2022-11-20T23:38:45.244Z,6.12
2022-11-20T23:41:12.643Z,6.03
2022-11-20T23:43:39.634Z,6.01
2022-11-20T23:46:11.380Z,6.02
2022-11-20T23:48:40.344Z,5.97
2022-11-20T23:51:06.863Z,5.91
2022-11-20T23:53:34.028Z,5.96
2022-11-20T23:56:03.130Z,5.81
2022-11-20T23:58:37.150Z,5.84
